createdAt,value
2024-02-29T00:02:01.288Z,100177.59
2024-02-29T00:05:05.213Z,100178.50
2024-02-29T00:08:09.531Z,100179.22
2024-02-29T00:11:15.610Z,100168.69
2024-02-29T00:14:19.425Z,100163.38
2024-02-29T00:17:25.418Z,100168.94
2024-02-29T00:20:46.343Z,100167.44
2024-02-29T00:23:50.527Z,100172.56
2024-02-29T00:26:55.799Z,100175.94
2024-02-29T00:29:59.603Z,100162.69
2024-02-29T00:33:05.822Z,100160.47
2024-02-29T00:36:10.540Z,100165.81
2024-02-29T00:39:15.450Z,100161.69
2024-02-29T00:42:24.892Z,100159.88
2024-02-29T00:45:28.863Z,100146.66
2024-02-29T00:48:45.190Z,100143.16
2024-02-29T00:52:04.579Z,100153.50
2024-02-29T00:55:19.305Z,100149.75
2024-02-29T00:58:25.423Z,100153.25
2024-02-29T01:01:29.146Z,100145.94
2024-02-29T01:04:36.908Z,100148.06
2024-02-29T01:07:56.514Z,100143.25
2024-02-29T01:11:09.056Z,100148.03
2024-02-29T01:14:12.638Z,100140.13
2024-02-29T01:17:16.226Z,100136.84
2024-02-29T01:20:23.240Z,100136.00
2024-02-29T01:23:32.575Z,100126.34
2024-02-29T01:26:39.772Z,100133.78
2024-02-29T01:29:43.467Z,100130.56
2024-02-29T01:32:47.012Z,100132.75
2024-02-29T01:35:53.191Z,100128.09
2024-02-29T01:38:56.773Z,100117.91
2024-02-29T01:42:00.746Z,100111.22
2024-02-29T01:45:07.883Z,100104.50
2024-02-29T01:48:21.652Z,100099.72
2024-02-29T01:51:28.328Z,100114.31
2024-02-29T01:54:35.585Z,100107.09
2024-02-29T01:57:58.450Z,100111.25
2024-02-29T02:01:04.593Z,100107.63
2024-02-29T02:04:08.257Z,100108.19
2024-02-29T02:07:13.577Z,100100.59
2024-02-29T02:10:17.306Z,100101.31
2024-02-29T02:13:21.639Z,100102.72
2024-02-29T02:16:25.479Z,100100.59
2024-02-29T02:19:29.219Z,100092.34
2024-02-29T02:22:34.325Z,100091.34
2024-02-29T02:25:38.154Z,100095.66
2024-02-29T02:28:44.542Z,100096.78
2024-02-29T02:32:19.606Z,100089.28
2024-02-29T02:35:23.277Z,100091.75
2024-02-29T02:38:28.375Z,100082.91
2024-02-29T02:41:31.933Z,100083.06
2024-02-29T02:44:35.562Z,100087.13
2024-02-29T02:47:39.168Z,100081.50
2024-02-29T02:50:42.813Z,100089.25
2024-02-29T02:53:47.875Z,100082.44
2024-02-29T02:56:51.466Z,100091.00
2024-02-29T02:59:55.082Z,100102.50
2024-02-29T03:03:00.873Z,100093.84
2024-02-29T03:06:04.576Z,100090.03
2024-02-29T03:09:10.228Z,100096.91
2024-02-29T03:12:13.767Z,100096.56
2024-02-29T03:15:17.634Z,100086.03
2024-02-29T03:18:21.503Z,100083.94
2024-02-29T03:21:25.149Z,100086.22
2024-02-29T03:24:30.214Z,100075.38
2024-02-29T03:27:33.851Z,100089.16
2024-02-29T03:30:37.520Z,100087.97
2024-02-29T03:33:41.176Z,100092.75
2024-02-29T03:36:44.828Z,100087.31
2024-02-29T03:39:49.871Z,100087.28
2024-02-29T03:42:53.528Z,100078.91
2024-02-29T03:45:57.147Z,100083.66
2024-02-29T03:49:00.848Z,100085.78
2024-02-29T03:52:05.331Z,100084.84
2024-02-29T03:55:12.779Z,100088.16
2024-02-29T03:58:16.797Z,100078.81
2024-02-29T04:01:20.529Z,100081.47
2024-02-29T04:04:24.490Z,100071.22
2024-02-29T04:07:28.132Z,100074.16
2024-02-29T04:10:33.175Z,100066.22
2024-02-29T04:13:36.778Z,100063.13
2024-02-29T04:16:42.364Z,100060.72
2024-02-29T04:19:47.103Z,100057.91
2024-02-29T04:22:50.773Z,100050.19
2024-02-29T04:25:55.826Z,100056.03
2024-02-29T04:28:59.433Z,100049.09
2024-02-29T04:32:03.031Z,100050.41
2024-02-29T04:35:07.218Z,100060.31
2024-02-29T04:38:10.913Z,100052.22
2024-02-29T04:41:15.944Z,100056.44
2024-02-29T04:44:19.684Z,100057.66
2024-02-29T04:47:23.346Z,100049.28
2024-02-29T04:50:27.188Z,100051.63
2024-02-29T04:53:30.808Z,100056.13
2024-02-29T04:56:36.618Z,100054.16
2024-02-29T04:59:40.249Z,100063.44
2024-02-29T05:02:43.884Z,100067.72
2024-02-29T05:05:47.434Z,100065.78
2024-02-29T05:08:50.998Z,100069.06
2024-02-29T05:11:56.175Z,100074.34
2024-02-29T05:15:00.650Z,100066.69
2024-02-29T05:18:04.724Z,100066.94
2024-02-29T05:21:08.391Z,100066.31
2024-02-29T05:24:12.004Z,100070.09
2024-02-29T05:27:17.065Z,100073.41
2024-02-29T05:30:20.826Z,100071.31
2024-02-29T05:33:24.413Z,100073.00
2024-02-29T05:36:28.109Z,100075.03
2024-02-29T05:39:34.880Z,100071.97
2024-02-29T05:42:40.036Z,100070.97
2024-02-29T05:45:43.908Z,100072.22
2024-02-29T05:48:47.732Z,100076.84
2024-02-29T05:51:51.387Z,100069.19
2024-02-29T05:54:55.226Z,100070.53
2024-02-29T05:58:00.443Z,100066.06
2024-02-29T06:01:04.538Z,100068.88
2024-02-29T06:04:31.860Z,100056.63
2024-02-29T06:07:51.692Z,100054.78
2024-02-29T06:10:58.889Z,100061.31
2024-02-29T06:14:04.114Z,100066.59
2024-02-29T06:17:08.352Z,100053.69
2024-02-29T06:20:13.464Z,100062.31
2024-02-29T06:23:17.071Z,100060.81
2024-02-29T06:26:20.676Z,100055.69
2024-02-29T06:29:25.673Z,100062.97
2024-02-29T06:32:29.358Z,100057.66
2024-02-29T06:35:32.982Z,100067.88
2024-02-29T06:38:36.575Z,100067.16
2024-02-29T06:41:44.907Z,100071.84
2024-02-29T06:44:49.615Z,100068.81
2024-02-29T06:47:53.195Z,100071.78
2024-02-29T06:50:56.749Z,100070.78
2024-02-29T06:54:00.391Z,100068.81
2024-02-29T06:57:05.483Z,100066.88
2024-02-29T07:00:12.821Z,100063.78
2024-02-29T07:03:16.499Z,100060.25
2024-02-29T07:06:22.401Z,100062.53
2024-02-29T07:09:26.010Z,100050.97
2024-02-29T07:12:29.570Z,100052.09
2024-02-29T07:15:35.325Z,100053.09
2024-02-29T07:18:39.161Z,100060.00
2024-02-29T07:21:43.663Z,100059.75
2024-02-29T07:24:47.261Z,100066.66
2024-02-29T07:27:51.297Z,100068.13
2024-02-29T07:30:56.456Z,100066.28
2024-02-29T07:34:00.352Z,100069.53
2024-02-29T07:37:04.180Z,100069.25
2024-02-29T07:40:09.144Z,100068.34
2024-02-29T07:43:12.838Z,100060.81
2024-02-29T07:46:18.500Z,100061.03
2024-02-29T07:49:22.988Z,100063.50
2024-02-29T07:52:26.655Z,100058.63
2024-02-29T07:55:30.314Z,100059.69
2024-02-29T07:58:34.022Z,100066.84
2024-02-29T08:01:40.105Z,100067.78
2024-02-29T08:04:44.108Z,100059.56
2024-02-29T08:07:48.355Z,100058.94
2024-02-29T08:10:52.014Z,100054.50
2024-02-29T08:13:56.683Z,100047.66
2024-02-29T08:17:01.854Z,100056.97
2024-02-29T08:20:07.091Z,100056.09
2024-02-29T08:23:12.613Z,100053.78
2024-02-29T08:26:16.295Z,100064.72
2024-02-29T08:29:19.907Z,100064.66
2024-02-29T08:32:24.957Z,100064.28
2024-02-29T08:35:28.613Z,100065.34
2024-02-29T08:38:32.325Z,100068.34
2024-02-29T08:41:36.091Z,100063.16
2024-02-29T08:44:44.148Z,100062.13
2024-02-29T08:47:49.534Z,100067.50
2024-02-29T08:50:53.212Z,100069.56
2024-02-29T08:53:56.810Z,100060.41
2024-02-29T08:57:00.562Z,100070.91
2024-02-29T09:00:04.819Z,100060.13
2024-02-29T09:03:10.326Z,100063.31
2024-02-29T09:06:15.187Z,100064.66
2024-02-29T09:09:18.932Z,100070.28
2024-02-29T09:12:24.270Z,100067.84
2024-02-29T09:15:28.013Z,100061.09
2024-02-29T09:18:33.196Z,100062.19
2024-02-29T09:24:40.724Z,100063.13
2024-02-29T09:27:44.595Z,100056.38
2024-02-29T09:30:48.413Z,100065.25
2024-02-29T09:33:54.959Z,100057.19
2024-02-29T09:36:58.743Z,100072.16
2024-02-29T09:40:05.153Z,100051.91
2024-02-29T09:43:09.331Z,100064.69
2024-02-29T09:46:13.077Z,100065.56
2024-02-29T09:49:18.394Z,100061.53
2024-02-29T09:52:23.727Z,100057.50
2024-02-29T09:55:29.209Z,100067.03
2024-02-29T09:58:35.717Z,100062.38
2024-02-29T10:01:39.575Z,100055.03
2024-02-29T10:04:45.052Z,100063.91
2024-02-29T10:07:50.096Z,100067.13
2024-02-29T10:10:55.600Z,100073.66
2024-02-29T10:14:03.052Z,100075.53
2024-02-29T10:17:06.718Z,100074.34
2024-02-29T10:20:13.908Z,100069.50
2024-02-29T10:23:17.906Z,100073.06
2024-02-29T10:26:21.463Z,100063.72
2024-02-29T10:29:26.892Z,100073.91
2024-02-29T10:32:31.264Z,100068.59
2024-02-29T10:35:36.957Z,100059.38
2024-02-29T10:38:42.961Z,100064.88
2024-02-29T10:41:51.689Z,100063.50
2024-02-29T10:44:57.871Z,100061.78
2024-02-29T10:48:08.679Z,100066.47
2024-02-29T10:51:27.153Z,100069.47
2024-02-29T10:54:38.971Z,100070.53
2024-02-29T10:57:47.143Z,100060.84
2024-02-29T11:00:51.333Z,100071.41
2024-02-29T11:03:57.459Z,100061.03
2024-02-29T11:07:05.080Z,100060.38
2024-02-29T11:10:10.939Z,100067.09
2024-02-29T11:13:20.082Z,100068.06
2024-02-29T11:16:23.920Z,100070.69
2024-02-29T11:19:28.737Z,100074.97
2024-02-29T11:22:37.703Z,100061.94
2024-02-29T11:25:43.969Z,100070.09
2024-02-29T11:28:51.430Z,100070.78
2024-02-29T11:31:57.757Z,100071.19
2024-02-29T11:35:02.094Z,100069.78
2024-02-29T11:38:10.151Z,100071.53
2024-02-29T11:41:18.063Z,100066.69
2024-02-29T11:44:22.007Z,100061.19
2024-02-29T11:47:25.661Z,100056.53
2024-02-29T11:50:29.287Z,100057.31
2024-02-29T11:53:34.670Z,100057.34
2024-02-29T11:56:38.600Z,100059.31
2024-02-29T11:59:42.190Z,100059.19
2024-02-29T12:02:46.895Z,100063.94
2024-02-29T12:05:50.927Z,100061.13
2024-02-29T12:08:56.960Z,100061.38
2024-02-29T12:12:01.537Z,100066.91
2024-02-29T12:15:06.421Z,100060.19
2024-02-29T12:18:11.697Z,100053.44
2024-02-29T12:21:16.156Z,100057.50
2024-02-29T12:24:21.220Z,100053.34
2024-02-29T12:27:27.879Z,100048.88
2024-02-29T12:30:34.669Z,100047.41
2024-02-29T12:33:39.497Z,100049.25
2024-02-29T12:36:47.705Z,100051.97
2024-02-29T12:40:01.942Z,100055.41
2024-02-29T12:43:07.332Z,100050.75
2024-02-29T12:46:11.071Z,100049.81
2024-02-29T12:49:14.774Z,100041.78
2024-02-29T12:52:19.396Z,100034.16
2024-02-29T12:55:25.186Z,100040.84
2024-02-29T12:58:28.975Z,100038.31
2024-02-29T13:01:33.051Z,100034.16
2024-02-29T13:04:39.070Z,100042.41
2024-02-29T13:07:43.308Z,100029.34
2024-02-29T13:10:48.439Z,100038.09
2024-02-29T13:13:52.175Z,100032.09
2024-02-29T13:17:37.876Z,100038.00
2024-02-29T13:20:42.011Z,100034.59
2024-02-29T13:23:57.763Z,100035.84
2024-02-29T13:27:03.165Z,100038.78
2024-02-29T13:30:08.578Z,100040.53
2024-02-29T13:33:12.251Z,100035.38
2024-02-29T13:36:17.130Z,100027.81
2024-02-29T13:39:20.856Z,100024.97
2024-02-29T13:42:26.002Z,100035.16
2024-02-29T13:45:38.083Z,100035.16
2024-02-29T13:48:44.824Z,100034.38
2024-02-29T13:51:49.110Z,100037.41
2024-02-29T13:54:52.771Z,100038.50
2024-02-29T13:57:58.191Z,100037.59
2024-02-29T14:01:02.004Z,100041.31
2024-02-29T14:04:06.573Z,100047.72
2024-02-29T14:07:10.368Z,100042.28
2024-02-29T14:10:14.142Z,100040.28
2024-02-29T14:13:19.287Z,100044.63
2024-02-29T14:16:23.253Z,100043.81
2024-02-29T14:19:27.119Z,100038.25
2024-02-29T14:22:31.221Z,100041.44
2024-02-29T14:25:35.042Z,100043.56
2024-02-29T14:28:40.180Z,100038.50
2024-02-29T14:31:43.758Z,100033.41
2024-02-29T14:34:47.384Z,100030.41
2024-02-29T14:37:51.076Z,100029.66
2024-02-29T14:40:54.673Z,100031.19
2024-02-29T14:44:04.340Z,100034.47
2024-02-29T14:47:08.481Z,100030.75
2024-02-29T14:50:12.230Z,100031.84
2024-02-29T14:53:15.902Z,100041.97
2024-02-29T14:56:19.723Z,100040.31
2024-02-29T14:59:24.783Z,100042.50
2024-02-29T15:02:28.623Z,100047.00
2024-02-29T15:05:32.440Z,100043.13
2024-02-29T15:08:37.840Z,100048.69
2024-02-29T15:11:41.785Z,100043.44
2024-02-29T15:14:46.865Z,100047.22
2024-02-29T15:17:50.581Z,100045.38
2024-02-29T15:20:54.346Z,100044.44
2024-02-29T15:24:05.555Z,100041.19
2024-02-29T15:27:10.530Z,100047.59
2024-02-29T15:30:15.941Z,100055.53
2024-02-29T15:33:20.789Z,100051.38
2024-02-29T15:36:24.878Z,100058.06
2024-02-29T15:39:28.565Z,100059.91
2024-02-29T15:42:32.237Z,100062.44
2024-02-29T15:45:37.274Z,100070.75
2024-02-29T15:48:41.076Z,100074.13
2024-02-29T15:51:44.879Z,100066.00
2024-02-29T15:54:48.543Z,100077.44
2024-02-29T15:57:52.706Z,100078.75
2024-02-29T16:00:58.073Z,100077.34
2024-02-29T16:04:01.932Z,100078.53
2024-02-29T16:07:06.074Z,100083.19
2024-02-29T16:10:10.855Z,100083.38
2024-02-29T16:13:14.803Z,100089.13
2024-02-29T16:16:20.237Z,100075.44
2024-02-29T16:19:25.246Z,100093.34
2024-02-29T16:22:29.093Z,100092.66
2024-02-29T16:25:33.025Z,100092.84
2024-02-29T16:28:37.065Z,100082.75
2024-02-29T16:31:42.156Z,100084.75
2024-02-29T16:34:46.094Z,100088.56
2024-02-29T16:37:49.775Z,100088.84
2024-02-29T16:40:55.971Z,100099.66
2024-02-29T16:44:00.426Z,100101.84
2024-02-29T16:47:06.442Z,100090.69
2024-02-29T16:50:13.928Z,100097.41
2024-02-29T16:53:17.669Z,100099.53
2024-02-29T16:56:24.130Z,100103.28
2024-02-29T16:59:27.780Z,100098.91
2024-02-29T17:02:34.160Z,100094.22
2024-02-29T17:05:37.932Z,100097.41
2024-02-29T17:08:41.580Z,100095.34
2024-02-29T17:11:45.709Z,100104.00
2024-02-29T17:14:49.445Z,100111.22
2024-02-29T17:17:54.737Z,100117.97
2024-02-29T17:21:00.876Z,100116.59
2024-02-29T17:24:04.788Z,100118.63
2024-02-29T17:27:10.847Z,100123.19
2024-02-29T17:30:17.019Z,100119.34
2024-02-29T17:33:22.279Z,100119.66
2024-02-29T17:36:26.147Z,100135.25
2024-02-29T17:39:31.196Z,100135.59
2024-02-29T17:42:37.602Z,100132.28
2024-02-29T17:45:42.097Z,100138.69
2024-02-29T17:48:54.806Z,100135.81
2024-02-29T17:51:59.017Z,100135.41
2024-02-29T17:55:03.682Z,100134.00
2024-02-29T17:58:25.476Z,100143.38
2024-02-29T18:01:52.215Z,100140.75
2024-02-29T18:05:48.005Z,100135.13
2024-02-29T18:08:51.817Z,100148.22
2024-02-29T18:12:03.304Z,100142.22
2024-02-29T18:15:08.012Z,100143.16
2024-02-29T18:18:13.892Z,100139.06
2024-02-29T18:21:22.182Z,100142.31
2024-02-29T18:24:25.910Z,100146.81
2024-02-29T18:27:29.933Z,100152.69
2024-02-29T18:30:33.787Z,100149.63
2024-02-29T18:33:37.850Z,100149.16
2024-02-29T18:36:43.091Z,100153.50
2024-02-29T18:39:46.921Z,100149.22
2024-02-29T18:42:50.790Z,100142.25
2024-02-29T18:46:03.137Z,100150.91
2024-02-29T18:49:11.164Z,100145.94
2024-02-29T18:52:16.512Z,100148.84
2024-02-29T18:55:20.364Z,100153.09
2024-02-29T18:58:24.224Z,100158.19
2024-02-29T19:01:28.258Z,100151.00
2024-02-29T19:04:32.233Z,100147.53
2024-02-29T19:07:37.745Z,100152.84
2024-02-29T19:10:42.274Z,100159.16
2024-02-29T19:13:46.007Z,100150.38
2024-02-29T19:16:50.207Z,100148.44
2024-02-29T19:19:57.812Z,100139.59
2024-02-29T19:23:03.049Z,100148.47
2024-02-29T19:26:06.940Z,100155.06
2024-02-29T19:29:10.720Z,100152.59
2024-02-29T19:32:18.097Z,100147.91
2024-02-29T19:35:21.832Z,100153.59
2024-02-29T19:38:29.641Z,100152.28
2024-02-29T19:41:33.325Z,100155.06
2024-02-29T19:44:37.357Z,100165.00
2024-02-29T19:47:41.151Z,100155.13
2024-02-29T19:50:45.082Z,100163.47
2024-02-29T19:53:50.219Z,100166.41
2024-02-29T19:56:58.446Z,100166.22
2024-02-29T20:00:02.753Z,100164.81
2024-02-29T20:03:15.848Z,100162.19
2024-02-29T20:06:19.555Z,100159.66
2024-02-29T20:09:25.860Z,100160.97
2024-02-29T20:12:29.728Z,100160.00
2024-02-29T20:15:33.516Z,100163.09
2024-02-29T20:18:37.165Z,100149.16
2024-02-29T20:21:40.859Z,100151.34
2024-02-29T20:24:46.268Z,100146.16
2024-02-29T20:27:53.816Z,100150.91
2024-02-29T20:30:57.698Z,100168.13
2024-02-29T20:34:01.433Z,100166.25
2024-02-29T20:37:05.347Z,100169.63
2024-02-29T20:40:11.577Z,100175.16
2024-02-29T20:43:15.332Z,100177.63
2024-02-29T20:46:33.499Z,100165.75
2024-02-29T20:49:37.331Z,100171.31
2024-02-29T20:52:41.045Z,100178.28
2024-02-29T20:55:46.296Z,100181.81
2024-02-29T20:58:49.906Z,100164.47
2024-02-29T21:01:53.636Z,100172.47
2024-02-29T21:04:59.314Z,100179.63
2024-02-29T21:08:03.073Z,100176.38
2024-02-29T21:11:08.298Z,100177.72
2024-02-29T21:14:13.043Z,100184.63
2024-02-29T21:17:16.964Z,100175.75
2024-02-29T21:20:20.528Z,100179.81
2024-02-29T21:23:24.324Z,100183.19
2024-02-29T21:26:29.418Z,100185.94
2024-02-29T21:29:33.253Z,100187.28
2024-02-29T21:32:37.251Z,100188.81
2024-02-29T21:35:40.873Z,100189.31
2024-02-29T21:38:46.130Z,100190.53
2024-02-29T21:41:51.148Z,100186.28
2024-02-29T21:44:54.749Z,100192.94
2024-02-29T21:47:58.399Z,100187.63
2024-02-29T21:51:01.970Z,100191.75
2024-02-29T21:54:06.255Z,100182.47
2024-02-29T21:57:15.310Z,100169.53
2024-02-29T22:00:31.851Z,100191.78
2024-02-29T22:03:35.412Z,100196.16
2024-02-29T22:06:38.979Z,100201.44
2024-02-29T22:09:42.686Z,100205.72
2024-02-29T22:12:47.790Z,100203.59
2024-02-29T22:15:51.438Z,100211.19
2024-02-29T22:18:55.060Z,100211.63
2024-02-29T22:21:59.562Z,100216.53
2024-02-29T22:25:04.293Z,100210.88
2024-02-29T22:28:09.738Z,100212.53
2024-02-29T22:31:13.420Z,100216.84
2024-02-29T22:34:17.253Z,100217.59
2024-02-29T22:37:20.904Z,100218.16
2024-02-29T22:40:24.542Z,100219.28
2024-02-29T22:43:29.573Z,100228.03
2024-02-29T22:46:35.872Z,100223.41
2024-02-29T22:49:39.582Z,100222.44
2024-02-29T22:52:43.110Z,100223.97
2024-02-29T22:55:50.579Z,100219.94
2024-02-29T22:58:55.820Z,100226.47
2024-02-29T23:01:59.786Z,100227.31
2024-02-29T23:05:04.273Z,100226.34
2024-02-29T23:08:11.067Z,100231.50
2024-02-29T23:11:14.636Z,100228.41
2024-02-29T23:14:19.823Z,100227.59
2024-02-29T23:17:23.471Z,100224.78
2024-02-29T23:20:27.129Z,100225.38
2024-02-29T23:23:30.698Z,100233.47
2024-02-29T23:26:34.559Z,100230.88
2024-02-29T23:29:40.143Z,100240.25
2024-02-29T23:32:44.009Z,100238.94
2024-02-29T23:35:47.841Z,100235.47
2024-02-29T23:38:51.482Z,100235.09
2024-02-29T23:41:55.139Z,100236.25
2024-02-29T23:45:00.165Z,100233.25
2024-02-29T23:48:03.946Z,100227.25
2024-02-29T23:51:07.751Z,100224.38
2024-02-29T23:54:11.529Z,100221.75
2024-02-29T23:57:15.209Z,100213.00
